Time;durP1;ratioP1;P1;durP2;ratioP2;P2;SDS_P1;SDS_P2;PMS_P1;PMS_P2;Temp;Humidity;BMP_temperature;BMP_pressure;BME280_temperature;BME280_humidity;BME280_pressure;Samples;Min_cycle;Max_cycle;Signal;HPM_P1;HPM_P2
2023/10/11 00:02:55;;;;;;;;;;;;;;;;;;5052582;28;817;-73
2023/10/11 00:05:21;;;;;;;;;;;;;;;;;;5051836;28;841;-73
2023/10/11 00:07:47;;;;;;;;;;;;;;;;;;5049741;28;1054;-73
2023/10/11 00:10:13;;;;;;;;;;;;;;;;;;5051785;28;833;-72
2023/10/11 00:12:41;;;;;;;;;;;;;;;;;;5050852;28;1979;-72
2023/10/11 00:15:08;;;;;;;;;;;;;;;;;;5051461;28;876;-72
2023/10/11 00:17:33;;;;;;;;;;;;;;;;;;5050777;28;900;-73
2023/10/11 00:19:59;;;;;;;;;;;;;;;;;;5051720;28;996;-73
2023/10/11 00:22:24;;;;;;;;;;;;;;;;;;5051526;28;979;-73
2023/10/11 00:24:49;;;;;;;;;;;;;;;;;;5032972;28;838;-73
2023/10/11 00:27:16;;;;;;;;;;;;;;;;;;5050451;28;955;-73
2023/10/11 00:29:41;;;;;;;;;;;;;;;;;;5049355;28;1694;-73
2023/10/11 00:32:08;;;;;;;;;;;;;;;;;;5050245;28;1967;-73
2023/10/11 00:34:34;;;;;;;;;;;;;;;;;;5050677;28;943;-73
2023/10/11 00:37:00;;;;;;;;;;;;;;;;;;5051693;28;865;-74
2023/10/11 00:39:27;;;;;;;;;;;;;;;;;;5051242;28;900;-73
2023/10/11 00:41:53;;;;;;;;;;;;;;;;;;5049877;28;1042;-73
2023/10/11 00:44:21;;;;;;;;;;;;;;;;;;5051615;28;911;-73
2023/10/11 00:46:57;;;;;;;;;;;;;;;;;;5051386;28;828;-74
2023/10/11 00:49:23;;;;;;;;;;;;;;;;;;5051927;28;1108;-73
2023/10/11 00:51:49;;;;;;;;;;;;;;;;;;5049740;28;1914;-73
2023/10/11 00:54:15;;;;;;;;;;;;;;;;;;5051619;28;765;-73
2023/10/11 00:56:43;;;;;;;;;;;;;;;;;;5050464;28;880;-73
2023/10/11 00:59:13;;;;;;;;;;;;;;;;;;5050117;28;1318;-73
2023/10/11 01:01:38;;;;;;;;;;;;;;;;;;5049937;28;997;-73
2023/10/11 01:04:06;;;;;;;;;;;;;;;;;;5051348;28;975;-73
2023/10/11 01:06:34;;;;;;;;;;;;;;;;;;5050889;28;923;-73
2023/10/11 01:08:59;;;;;;;;;;;;;;;;;;5049594;28;1341;-73
2023/10/11 01:11:26;;;;;;;;;;;;;;;;;;5051025;28;1969;-73
2023/10/11 01:13:51;;;;;;;;;;;;;;;;;;5058333;28;1258;-73
2023/10/11 01:16:18;;;;;;;;;;;;;;;;;;5065874;28;1394;-74
2023/10/11 01:18:43;;;;;;;;;;;;;;;;;;5049416;28;1179;-73
2023/10/11 01:21:09;;;;;;;;;;;;;;;;;;5048669;28;1101;-73
2023/10/11 01:23:35;;;;;;;;;;;;;;;;;;5049236;28;1196;-74
2023/10/11 01:26:09;;;;;;;;;;;;;;;;;;5050817;28;920;-73
2023/10/11 01:28:35;;;;;;;;;;;;;;;;;;5050824;28;872;-73
2023/10/11 01:31:03;;;;;;;;;;;;;;;;;;5051385;28;981;-73
2023/10/11 01:33:28;;;;;;;;;;;;;;;;;;5050500;28;1968;-73
2023/10/11 01:35:53;;;;;;;;;;;;;;;;;;5050543;28;821;-73
2023/10/11 01:38:19;;;;;;;;;;;;;;;;;;5051054;28;916;-73
2023/10/11 01:40:44;;;;;;;;;;;;;;;;;;5050433;28;920;-73
2023/10/11 01:43:09;;;;;;;;;;;;;;;;;;5050335;28;857;-73
2023/10/11 01:45:39;;;;;;;;;;;;;;;;;;5049845;28;866;-73
2023/10/11 01:48:04;;;;;;;;;;;;;;;;;;5050359;28;936;-73
2023/10/11 01:50:29;;;;;;;;;;;;;;;;;;5050650;28;844;-73
2023/10/11 01:52:54;;;;;;;;;;;;;;;;;;5049756;28;1965;-73
2023/10/11 01:55:20;;;;;;;;;;;;;;;;;;5050345;28;975;-73
2023/10/11 01:57:45;;;;;;;;;;;;;;;;;;5048435;28;1456;-73
2023/10/11 02:00:14;;;;;;;;;;;;;;;;;;5049356;28;1495;-73
2023/10/11 02:02:47;;;;;;;;;;;;;;;;;;5049785;28;849;-73
2023/10/11 02:05:17;;;;;;;;;;;;;;;;;;5051060;28;809;-74
2023/10/11 02:07:44;;;;;;;;;;;;;;;;;;5048233;28;1247;-74
2023/10/11 02:10:13;;;;;;;;;;;;;;;;;;5051070;28;899;-73
2023/10/11 02:12:44;;;;;;;;;;;;;;;;;;5051452;28;1897;-74
2023/10/11 02:15:10;;;;;;;;;;;;;;;;;;5054206;28;836;-73
2023/10/11 02:17:39;;;;;;;;;;;;;;;;;;5053338;28;833;-73
2023/10/11 02:20:13;;;;;;;;;;;;;;;;;;5052852;28;1230;-73
2023/10/11 02:22:43;;;;;;;;;;;;;;;;;;5054031;28;900;-73
2023/10/11 02:25:13;;;;;;;;;;;;;;;;;;5053001;28;1385;-73
2023/10/11 02:27:39;;;;;;;;;;;;;;;;;;5052951;28;1609;-73
2023/10/11 02:30:07;;;;;;;;;;;;;;;;;;5054641;28;841;-73
2023/10/11 02:32:38;;;;;;;;;;;;;;;;;;5054486;28;1964;-74
2023/10/11 02:35:06;;;;;;;;;;;;;;;;;;5054912;28;853;-73
2023/10/11 02:37:35;;;;;;;;;;;;;;;;;;5053296;28;887;-73
2023/10/11 02:40:00;;;;;;;;;;;;;;;;;;5053629;28;927;-73
2023/10/11 02:42:25;;;;;;;;;;;;;;;;;;5054705;28;821;-73
2023/10/11 02:44:51;;;;;;;;;;;;;;;;;;5053960;28;935;-73
2023/10/11 02:47:22;;;;;;;;;;;;;;;;;;5054053;28;899;-74
2023/10/11 02:49:51;;;;;;;;;;;;;;;;;;5052777;28;836;-73
2023/10/11 02:52:18;;;;;;;;;;;;;;;;;;5053541;28;1903;-73
2023/10/11 02:54:46;;;;;;;;;;;;;;;;;;5053038;28;906;-73
2023/10/11 02:57:18;;;;;;;;;;;;;;;;;;5051895;28;1009;-73
2023/10/11 02:59:44;;;;;;;;;;;;;;;;;;5051367;28;955;-74
2023/10/11 03:02:15;;;;;;;;;;;;;;;;;;5053589;28;836;-74
2023/10/11 03:04:41;;;;;;;;;;;;;;;;;;5052965;28;877;-74
2023/10/11 03:07:12;;;;;;;;;;;;;;;;;;5052870;28;986;-74
2023/10/11 03:09:40;;;;;;;;;;;;;;;;;;5052419;28;932;-74
2023/10/11 03:12:06;;;;;;;;;;;;;;;;;;5051373;28;1913;-74
2023/10/11 03:14:41;;;;;;;;;;;;;;;;;;5053077;28;789;-74
2023/10/11 03:17:13;;;;;;;;;;;;;;;;;;5051632;28;936;-74
2023/10/11 03:19:42;;;;;;;;;;;;;;;;;;5052313;28;829;-74
2023/10/11 03:22:07;;;;;;;;;;;;;;;;;;5053197;28;934;-74
2023/10/11 03:24:33;;;;;;;;;;;;;;;;;;5052802;28;908;-74
2023/10/11 03:27:00;;;;;;;;;;;;;;;;;;5051931;28;1320;-74
2023/10/11 03:29:26;;;;;;;;;;;;;;;;;;5052375;28;884;-73
2023/10/11 03:31:51;;;;;;;;;;;;;;;;;;5052942;28;1956;-74
2023/10/11 03:34:19;;;;;;;;;;;;;;;;;;5052015;28;946;-74
2023/10/11 03:36:52;;;;;;;;;;;;;;;;;;5050799;28;873;-74
2023/10/11 03:39:28;;;;;;;;;;;;;;;;;;5052873;28;880;-74
2023/10/11 03:42:06;;;;;;;;;;;;;;;;;;5052601;28;931;-74
2023/10/11 03:44:35;;;;;;;;;;;;;;;;;;5052828;28;877;-73
2023/10/11 03:47:05;;;;;;;;;;;;;;;;;;5050688;28;1188;-74
2023/10/11 03:51:56;;;;;;;;;;;;;;;;;;5051827;28;1910;-73
2023/10/11 03:54:24;;;;;;;;;;;;;;;;;;5052712;28;1042;-73
2023/10/11 03:56:55;;;;;;;;;;;;;;;;;;5050837;28;813;-73
2023/10/11 03:59:26;;;;;;;;;;;;;;;;;;5052686;28;844;-73
2023/10/11 04:01:52;;;;;;;;;;;;;;;;;;5050568;28;1566;-73
2023/10/11 04:04:19;;;;;;;;;;;;;;;;;;5052350;28;923;-73
2023/10/11 04:06:51;;;;;;;;;;;;;;;;;;5050799;28;1483;-73
2023/10/11 04:09:22;;;;;;;;;;;;;;;;;;5051336;28;1187;-73
2023/10/11 04:11:57;;;;;;;;;;;;;;;;;;5050933;28;1957;-73
2023/10/11 04:14:39;;;;;;;;;;;;;;;;;;5052824;28;934;-73
2023/10/11 04:19:46;;;;;;;;;;;;;;;;;;5051502;28;883;-73
2023/10/11 04:22:23;;;;;;;;;;;;;;;;;;5050416;28;1299;-73
2023/10/11 04:24:48;;;;;;;;;;;;;;;;;;5051097;28;888;-73
2023/10/11 04:27:57;;;;;;;;;;;;;;;;;;5050034;28;999;-73
2023/10/11 04:30:17;;;;;;;;;;;;;;;;;;5048399;28;1096;-74
2023/10/11 04:32:45;;;;;;;;;;;;;;;;;;5050953;28;1898;-73
2023/10/11 04:35:36;;;;;;;;;;;;;;;;;;5051046;28;857;-73
2023/10/11 04:38:02;;;;;;;;;;;;;;;;;;5049421;28;1270;-73
2023/10/11 04:43:06;;;;;;;;;;;;;;;;;;5050715;28;791;-73
2023/10/11 04:45:44;;;;;;;;;;;;;;;;;;5050574;28;1476;-74
2023/10/11 04:48:16;;;;;;;;;;;;;;;;;;5049734;28;1365;-73
2023/10/11 04:50:48;;;;;;;;;;;;;;;;;;5051082;28;1100;-73
2023/10/11 04:53:17;;;;;;;;;;;;;;;;;;5050973;28;1910;-73
2023/10/11 04:55:47;;;;;;;;;;;;;;;;;;5054729;28;1246;-74
2023/10/11 04:58:21;;;;;;;;;;;;;;;;;;5050787;28;1244;-73
2023/10/11 05:00:48;;;;;;;;;;;;;;;;;;5051105;28;1224;-73
2023/10/11 05:03:17;;;;;;;;;;;;;;;;;;5050473;28;1298;-73
2023/10/11 05:05:58;;;;;;;;;;;;;;;;;;5051718;28;1164;-73
2023/10/11 05:08:50;;;;;;;;;;;;;;;;;;5058680;28;1056;-73
2023/10/11 05:11:18;;;;;;;;;;;;;;;;;;5070483;28;1394;-73
2023/10/11 05:13:59;;;;;;;;;;;;;;;;;;5071205;28;907;-73
2023/10/11 05:16:24;;;;;;;;;;;;;;;;;;5070865;28;888;-73
2023/10/11 05:18:49;;;;;;;;;;;;;;;;;;5070172;28;1107;-73
2023/10/11 05:21:16;;;;;;;;;;;;;;;;;;5071141;28;884;-73
2023/10/11 05:24:14;;;;;;;;;;;;;;;;;;5069830;28;852;-73
2023/10/11 05:26:47;;;;;;;;;;;;;;;;;;5070740;28;1045;-73
2023/10/11 05:29:24;;;;;;;;;;;;;;;;;;5070895;28;896;-73
2023/10/11 05:34:50;;;;;;;;;;;;;;;;;;5072038;28;627;-73
2023/10/11 05:50:56;;;;;;;;;;;;;;;;;;5074766;28;1109;-68
2023/10/11 05:53:21;;;;;;;;;;;;;;;;;;5075733;28;1981;-69
2023/10/11 05:55:46;;;;;;;;;;;;;;;;;;5074666;28;885;-69
2023/10/11 05:58:13;;;;;;;;;;;;;;;;;;5074780;28;1078;-69
2023/10/11 06:00:39;;;;;;;;;;;;;;;;;;5074383;28;889;-69
2023/10/11 06:03:06;;;;;;;;;;;;;;;;;;5073107;28;868;-69
2023/10/11 06:05:39;;;;;;;;;;;;;;;;;;5074242;28;884;-69
2023/10/11 06:08:05;;;;;;;;;;;;;;;;;;5074021;28;892;-69
2023/10/11 06:10:41;;;;;;;;;;;;;;;;;;5073110;28;1183;-69
2023/10/11 06:13:13;;;;;;;;;;;;;;;;;;5057376;28;1969;-69
2023/10/11 06:15:59;;;;;;;;;;;;;;;;;;5074329;28;833;-69
2023/10/11 06:18:42;;;;;;;;;;;;;;;;;;5073714;28;914;-69
2023/10/11 06:24:13;;;;;;;;;;;;;;;;;;5031269;28;1399;-69
2023/10/11 06:29:07;;;;;;;;;;;;;;;;;;5072655;28;888;-69
2023/10/11 06:31:45;;;;;;;;;;;;;;;;;;5074016;28;1945;-69
2023/10/11 06:34:45;;;;;;;;;;;;;;;;;;5072294;28;1253;-69
2023/10/11 06:37:02;;;;;;;;;;;;;;;;;;5070984;28;1332;-69
2023/10/11 06:40:07;;;;;;;;;;;;;;;;;;5073432;28;896;-68
2023/10/11 06:42:21;;;;;;;;;;;;;;;;;;5073936;28;1752;-69
2023/10/11 06:44:59;;;;;;;;;;;;;;;;;;5074276;28;837;-68
2023/10/11 06:47:26;;;;;;;;;;;;;;;;;;5074078;28;921;-69
2023/10/11 06:49:55;;;;;;;;;;;;;;;;;;5074218;28;872;-68
2023/10/11 06:52:33;;;;;;;;;;;;;;;;;;5073927;28;1918;-68
2023/10/11 06:55:15;;;;;;;;;;;;;;;;;;5074316;28;927;-68
2023/10/11 06:57:45;;;;;;;;;;;;;;;;;;5073385;28;903;-68
2023/10/11 07:00:24;;;;;;;;;;;;;;;;;;5073321;28;946;-69
2023/10/11 07:03:26;;;;;;;;;;;;;;;;;;5069364;28;1171;-69
2023/10/11 07:05:59;;;;;;;;;;;;;;;;;;5062152;28;1072;-68
2023/10/11 07:08:35;;;;;;;;;;;;;;;;;;5070584;28;1199;-68
2023/10/11 07:11:02;;;;;;;;;;;;;;;;;;5069507;28;1207;-69
2023/10/11 07:13:43;;;;;;;;;;;;;;;;;;5066352;28;1922;-69
2023/10/11 07:16:08;;;;;;;;;;;;;;;;;;5073560;28;916;-68
2023/10/11 07:18:39;;;;;;;;;;;;;;;;;;5072435;28;908;-68
2023/10/11 07:28:59;;;;;;;;;;;;;;;;;;5071844;28;718;-69
2023/10/11 07:31:35;;;;;;;;;;;;;;;;;;5073141;28;1964;-68
2023/10/11 07:34:05;;;;;;;;;;;;;;;;;;5073108;28;872;-69
2023/10/11 07:36:31;;;;;;;;;;;;;;;;;;5073362;28;880;-68
2023/10/11 07:38:56;;;;;;;;;;;;;;;;;;5073039;28;884;-69
2023/10/11 07:41:29;;;;;;;;;;;;;;;;;;5071396;28;1234;-69
2023/10/11 07:43:57;;;;;;;;;;;;;;;;;;5072685;28;872;-68
2023/10/11 07:46:23;;;;;;;;;;;;;;;;;;5071674;28;959;-68
2023/10/11 07:48:48;;;;;;;;;;;;;;;;;;5072570;28;939;-69
2023/10/11 07:51:14;;;;;;;;;;;;;;;;;;5072497;28;1350;-68
2023/10/11 07:53:41;;;;;;;;;;;;;;;;;;5072153;28;1990;-69
2023/10/11 07:56:06;;;;;;;;;;;;;;;;;;5072800;28;916;-69
2023/10/11 07:58:35;;;;;;;;;;;;;;;;;;5072342;28;789;-69
2023/10/11 08:01:15;;;;;;;;;;;;;;;;;;5072684;28;900;-69
2023/10/11 08:03:44;;;;;;;;;;;;;;;;;;5071408;28;916;-69
2023/10/11 08:06:12;;;;;;;;;;;;;;;;;;5072465;28;941;-68
2023/10/11 08:08:37;;;;;;;;;;;;;;;;;;5072135;28;880;-68
2023/10/11 08:11:18;;;;;;;;;;;;;;;;;;5072512;28;955;-68
2023/10/11 08:13:44;;;;;;;;;;;;;;;;;;5072100;28;1971;-68
2023/10/11 08:16:13;;;;;;;;;;;;;;;;;;5072852;28;876;-69
2023/10/11 08:18:39;;;;;;;;;;;;;;;;;;5072513;28;844;-69
2023/10/11 08:21:05;;;;;;;;;;;;;;;;;;5073054;28;907;-68
2023/10/11 08:23:31;;;;;;;;;;;;;;;;;;5070992;28;888;-69
2023/10/11 08:25:57;;;;;;;;;;;;;;;;;;5071170;28;1207;-68
2023/10/11 08:28:28;;;;;;;;;;;;;;;;;;5072565;28;805;-69
2023/10/11 08:30:57;;;;;;;;;;;;;;;;;;5071208;28;816;-68
2023/10/11 08:33:25;;;;;;;;;;;;;;;;;;5071158;28;1882;-68
2023/10/11 08:35:54;;;;;;;;;;;;;;;;;;5071133;28;955;-69
2023/10/11 08:38:20;;;;;;;;;;;;;;;;;;5071635;28;810;-69
2023/10/11 08:40:50;;;;;;;;;;;;;;;;;;5069694;28;1007;-68
2023/10/11 08:43:15;;;;;;;;;;;;;;;;;;5071410;28;837;-68
2023/10/11 08:45:48;;;;;;;;;;;;;;;;;;5070875;28;888;-69
2023/10/11 08:48:14;;;;;;;;;;;;;;;;;;5070723;28;1179;-68
2023/10/11 08:50:44;;;;;;;;;;;;;;;;;;5071161;28;900;-68
2023/10/11 08:53:10;;;;;;;;;;;;;;;;;;5071620;28;2004;-69
2023/10/11 08:55:41;;;;;;;;;;;;;;;;;;5071927;28;995;-68
2023/10/11 08:58:12;;;;;;;;;;;;;;;;;;5070868;28;1397;-68
2023/10/11 09:00:37;;;;;;;;;;;;;;;;;;5071412;28;809;-68
2023/10/11 09:03:23;;;;;;;;;;;;;;;;;;5071611;28;785;-69
2023/10/11 09:05:58;;;;;;;;;;;;;;;;;;5070864;28;888;-68
2023/10/11 09:08:27;;;;;;;;;;;;;;;;;;5071716;28;824;-68
2023/10/11 09:10:52;;;;;;;;;;;;;;;;;;5070067;28;1138;-68
2023/10/11 09:13:25;;;;;;;;;;;;;;;;;;5071514;28;1906;-69
2023/10/11 09:15:54;;;;;;;;;;;;;;;;;;5071083;28;833;-68
2023/10/11 09:18:19;;;;;;;;;;;;;;;;;;5071405;28;907;-69
2023/10/11 09:20:49;;;;;;;;;;;;;;;;;;5070605;28;924;-68
2023/10/11 09:23:20;;;;;;;;;;;;;;;;;;5074066;28;880;-69
2023/10/11 09:25:58;;;;;;;;;;;;;;;;;;5074647;28;918;-69
2023/10/11 09:28:27;;;;;;;;;;;;;;;;;;5075515;28;837;-68
2023/10/11 09:31:12;;;;;;;;;;;;;;;;;;5075373;28;848;-69
2023/10/11 09:33:41;;;;;;;;;;;;;;;;;;5074806;28;1902;-68
2023/10/11 09:36:09;;;;;;;;;;;;;;;;;;5074949;28;924;-68
2023/10/11 09:38:41;;;;;;;;;;;;;;;;;;5073326;28;1269;-69
2023/10/11 09:41:10;;;;;;;;;;;;;;;;;;5074776;28;963;-69
2023/10/11 09:43:39;;;;;;;;;;;;;;;;;;5075106;28;900;-69
2023/10/11 09:46:11;;;;;;;;;;;;;;;;;;5075102;28;955;-69
2023/10/11 09:48:37;;;;;;;;;;;;;;;;;;5073562;28;1400;-70
2023/10/11 09:51:07;;;;;;;;;;;;;;;;;;5075674;28;1080;-69
2023/10/11 09:53:33;;;;;;;;;;;;;;;;;;5075534;28;1963;-70
2023/10/11 09:56:05;;;;;;;;;;;;;;;;;;5075286;28;905;-70
2023/10/11 09:58:44;;;;;;;;;;;;;;;;;;5075303;28;833;-69
2023/10/11 10:01:38;;;;;;;;;;;;;;;;;;5074562;28;849;-70
2023/10/11 10:04:07;;;;;;;;;;;;;;;;;;5074037;28;713;-70
2023/10/11 10:06:32;;;;;;;;;;;;;;;;;;5075108;28;978;-69
2023/10/11 10:09:17;;;;;;;;;;;;;;;;;;5075104;28;915;-70
2023/10/11 10:12:09;;;;;;;;;;;;;;;;;;5074215;28;1938;-69
2023/10/11 10:14:36;;;;;;;;;;;;;;;;;;5074278;28;879;-69
2023/10/11 10:17:15;;;;;;;;;;;;;;;;;;5072640;28;908;-70
2023/10/11 10:19:43;;;;;;;;;;;;;;;;;;5073725;28;844;-68
2023/10/11 10:22:27;;;;;;;;;;;;;;;;;;5074558;28;848;-69
2023/10/11 10:24:54;;;;;;;;;;;;;;;;;;5074202;28;860;-68
2023/10/11 10:27:33;;;;;;;;;;;;;;;;;;5074315;28;1177;-68
2023/10/11 10:29:59;;;;;;;;;;;;;;;;;;5074158;28;867;-68
2023/10/11 10:32:25;;;;;;;;;;;;;;;;;;5073497;28;1961;-68
2023/10/11 10:35:14;;;;;;;;;;;;;;;;;;5072491;28;816;-68
2023/10/11 10:38:03;;;;;;;;;;;;;;;;;;5074064;28;1382;-68
2023/10/11 10:40:29;;;;;;;;;;;;;;;;;;5074175;28;945;-68
2023/10/11 10:43:08;;;;;;;;;;;;;;;;;;5073768;28;857;-68
2023/10/11 10:45:34;;;;;;;;;;;;;;;;;;5074126;28;650;-69
2023/10/11 10:48:15;;;;;;;;;;;;;;;;;;5073297;28;1117;-68
2023/10/11 10:50:50;;;;;;;;;;;;;;;;;;5073490;28;912;-68
2023/10/11 10:53:16;;;;;;;;;;;;;;;;;;5073700;28;1959;-68
2023/10/11 10:55:45;;;;;;;;;;;;;;;;;;5072924;28;852;-68
2023/10/11 10:58:19;;;;;;;;;;;;;;;;;;5073730;28;837;-68
2023/10/11 11:00:47;;;;;;;;;;;;;;;;;;5072814;28;904;-68
2023/10/11 11:03:19;;;;;;;;;;;;;;;;;;5071855;28;947;-68
2023/10/11 11:05:57;;;;;;;;;;;;;;;;;;5072862;28;984;-68
2023/10/11 11:08:31;;;;;;;;;;;;;;;;;;5073227;28;837;-68
2023/10/11 11:11:00;;;;;;;;;;;;;;;;;;5073167;28;868;-68
2023/10/11 11:13:28;;;;;;;;;;;;;;;;;;5073353;28;1984;-68
2023/10/11 11:15:56;;;;;;;;;;;;;;;;;;5072933;28;899;-68
2023/10/11 11:18:31;;;;;;;;;;;;;;;;;;5073034;28;861;-68
2023/10/11 11:21:00;;;;;;;;;;;;;;;;;;5072561;28;904;-68
2023/10/11 11:23:27;;;;;;;;;;;;;;;;;;5073778;28;872;-68
2023/10/11 11:25:53;;;;;;;;;;;;;;;;;;5071746;28;1412;-69
2023/10/11 11:28:20;;;;;;;;;;;;;;;;;;5072926;28;923;-68
2023/10/11 11:30:51;;;;;;;;;;;;;;;;;;5072491;28;821;-68
2023/10/11 11:33:22;;;;;;;;;;;;;;;;;;5073202;28;1882;-68
2023/10/11 11:35:52;;;;;;;;;;;;;;;;;;5057173;28;1269;-69
2023/10/11 11:38:23;;;;;;;;;;;;;;;;;;5067068;28;1061;-69
2023/10/11 11:40:52;;;;;;;;;;;;;;;;;;5062953;28;1148;-68
2023/10/11 11:43:20;;;;;;;;;;;;;;;;;;5053785;28;1148;-68
2023/10/11 11:45:46;;;;;;;;;;;;;;;;;;5051132;28;1345;-68
2023/10/11 11:48:13;;;;;;;;;;;;;;;;;;5053779;28;887;-69
2023/10/11 11:50:39;;;;;;;;;;;;;;;;;;5053515;28;897;-69
2023/10/11 11:53:04;;;;;;;;;;;;;;;;;;5053180;28;1913;-68
2023/10/11 11:55:31;;;;;;;;;;;;;;;;;;5053895;28;801;-68
2023/10/11 11:57:57;;;;;;;;;;;;;;;;;;5053326;28;833;-68
2023/10/11 12:02:54;;;;;;;;;;;;;;;;;;5052935;28;785;-69
2023/10/11 12:05:20;;;;;;;;;;;;;;;;;;5052647;28;987;-68
2023/10/11 12:07:47;;;;;;;;;;;;;;;;;;5052186;28;914;-69
2023/10/11 12:10:25;;;;;;;;;;;;;;;;;;5052856;28;880;-68
2023/10/11 12:12:51;;;;;;;;;;;;;;;;;;5052698;28;1894;-69
2023/10/11 12:15:17;;;;;;;;;;;;;;;;;;5052967;28;900;-69
2023/10/11 12:17:42;;;;;;;;;;;;;;;;;;5050404;28;1326;-68
2023/10/11 12:20:12;;;;;;;;;;;;;;;;;;5052205;28;900;-69
2023/10/11 12:22:42;;;;;;;;;;;;;;;;;;5052268;28;908;-69
2023/10/11 12:25:08;;;;;;;;;;;;;;;;;;5052157;28;925;-68
2023/10/11 12:27:37;;;;;;;;;;;;;;;;;;5051939;28;836;-68
2023/10/11 12:30:09;;;;;;;;;;;;;;;;;;5051660;28;876;-68
2023/10/11 12:32:34;;;;;;;;;;;;;;;;;;5051934;28;1898;-69
2023/10/11 12:35:04;;;;;;;;;;;;;;;;;;5051664;28;896;-68
2023/10/11 12:37:30;;;;;;;;;;;;;;;;;;5051850;28;806;-69
2023/10/11 12:39:55;;;;;;;;;;;;;;;;;;5051270;28;882;-68
2023/10/11 12:42:22;;;;;;;;;;;;;;;;;;5051760;28;1027;-68
2023/10/11 12:44:47;;;;;;;;;;;;;;;;;;5051141;28;869;-69
2023/10/11 12:47:13;;;;;;;;;;;;;;;;;;5051304;28;911;-68
2023/10/11 12:49:38;;;;;;;;;;;;;;;;;;5051085;28;1136;-69
2023/10/11 12:52:05;;;;;;;;;;;;;;;;;;5047792;28;1985;-69
2023/10/11 12:54:31;;;;;;;;;;;;;;;;;;5050391;28;1085;-68
2023/10/11 12:56:56;;;;;;;;;;;;;;;;;;5054299;28;1136;-68
2023/10/11 12:59:22;;;;;;;;;;;;;;;;;;5054373;28;1140;-69
2023/10/11 13:01:52;;;;;;;;;;;;;;;;;;5050306;28;1176;-68
2023/10/11 13:04:18;;;;;;;;;;;;;;;;;;5051058;28;894;-69
2023/10/11 13:06:49;;;;;;;;;;;;;;;;;;5051222;28;926;-68
2023/10/11 13:09:15;;;;;;;;;;;;;;;;;;5051204;28;861;-68
2023/10/11 13:11:46;;;;;;;;;;;;;;;;;;5050828;28;1961;-68
2023/10/11 13:14:21;;;;;;;;;;;;;;;;;;5050268;28;908;-69
2023/10/11 13:16:54;;;;;;;;;;;;;;;;;;5050845;28;916;-69
2023/10/11 13:19:19;;;;;;;;;;;;;;;;;;5050925;28;857;-68
2023/10/11 13:21:45;;;;;;;;;;;;;;;;;;5050368;28;925;-69
2023/10/11 13:24:12;;;;;;;;;;;;;;;;;;5050818;28;856;-68
2023/10/11 13:26:42;;;;;;;;;;;;;;;;;;5051274;28;906;-68
2023/10/11 13:29:07;;;;;;;;;;;;;;;;;;5050722;28;917;-68
2023/10/11 13:31:33;;;;;;;;;;;;;;;;;;5050413;28;817;-68
2023/10/11 13:33:58;;;;;;;;;;;;;;;;;;5051451;28;1902;-68
2023/10/11 13:36:27;;;;;;;;;;;;;;;;;;5052175;28;813;-69
2023/10/11 13:38:54;;;;;;;;;;;;;;;;;;5052056;28;829;-68
2023/10/11 13:41:27;;;;;;;;;;;;;;;;;;5052082;28;888;-68
2023/10/11 13:43:52;;;;;;;;;;;;;;;;;;5050308;28;1097;-68
2023/10/11 13:46:17;;;;;;;;;;;;;;;;;;5051411;28;1038;-68
2023/10/11 13:48:46;;;;;;;;;;;;;;;;;;5050816;28;840;-68
2023/10/11 13:51:18;;;;;;;;;;;;;;;;;;5050830;28;1053;-67
2023/10/11 13:53:44;;;;;;;;;;;;;;;;;;5051024;28;1910;-68
2023/10/11 13:56:21;;;;;;;;;;;;;;;;;;5051031;28;1644;-68
2023/10/11 13:58:47;;;;;;;;;;;;;;;;;;5050442;28;884;-68
2023/10/11 14:04:04;;;;;;;;;;;;;;;;;;5050683;28;635;-68
2023/10/11 14:06:42;;;;;;;;;;;;;;;;;;5050944;28;895;-69
2023/10/11 14:09:16;;;;;;;;;;;;;;;;;;5052846;28;879;-68
2023/10/11 14:11:41;;;;;;;;;;;;;;;;;;5053953;28;1947;-68
2023/10/11 14:14:09;;;;;;;;;;;;;;;;;;5053303;28;880;-68
2023/10/11 14:16:34;;;;;;;;;;;;;;;;;;5053964;28;973;-69
2023/10/11 14:19:06;;;;;;;;;;;;;;;;;;5035563;28;1389;-68
2023/10/11 14:21:36;;;;;;;;;;;;;;;;;;5053730;28;897;-68
2023/10/11 14:24:01;;;;;;;;;;;;;;;;;;5053732;28;853;-68
2023/10/11 14:26:28;;;;;;;;;;;;;;;;;;5054311;28;928;-69
2023/10/11 14:28:54;;;;;;;;;;;;;;;;;;5052155;28;784;-68
2023/10/11 14:31:22;;;;;;;;;;;;;;;;;;5053726;28;1150;-68
2023/10/11 14:33:49;;;;;;;;;;;;;;;;;;5053123;28;1949;-68
2023/10/11 14:36:15;;;;;;;;;;;;;;;;;;5054031;28;873;-68
2023/10/11 14:38:40;;;;;;;;;;;;;;;;;;5053644;28;904;-68
2023/10/11 14:41:09;;;;;;;;;;;;;;;;;;5052848;28;920;-69
2023/10/11 14:43:36;;;;;;;;;;;;;;;;;;5053679;28;892;-68
2023/10/11 14:46:06;;;;;;;;;;;;;;;;;;5053026;28;860;-69
2023/10/11 14:48:31;;;;;;;;;;;;;;;;;;5053793;28;904;-68
2023/10/11 14:50:56;;;;;;;;;;;;;;;;;;5053036;28;1446;-68
2023/10/11 14:53:22;;;;;;;;;;;;;;;;;;5053242;28;1910;-68
2023/10/11 14:55:50;;;;;;;;;;;;;;;;;;5052977;28;912;-69
2023/10/11 14:58:16;;;;;;;;;;;;;;;;;;5053455;28;921;-68
2023/10/11 15:00:45;;;;;;;;;;;;;;;;;;5053446;28;1031;-68
2023/10/11 15:03:12;;;;;;;;;;;;;;;;;;5053088;28;849;-68
2023/10/11 15:05:38;;;;;;;;;;;;;;;;;;5053298;28;817;-68
2023/10/11 15:08:05;;;;;;;;;;;;;;;;;;5052873;28;970;-68
2023/10/11 15:10:30;;;;;;;;;;;;;;;;;;5054525;28;857;-69
2023/10/11 15:12:55;;;;;;;;;;;;;;;;;;5053964;28;1870;-69
2023/10/11 15:15:26;;;;;;;;;;;;;;;;;;5054103;28;974;-68
2023/10/11 15:17:51;;;;;;;;;;;;;;;;;;5052661;28;1000;-68
2023/10/11 15:20:17;;;;;;;;;;;;;;;;;;5053425;28;825;-69
2023/10/11 15:22:43;;;;;;;;;;;;;;;;;;5053485;28;813;-68
2023/10/11 15:25:09;;;;;;;;;;;;;;;;;;5053544;28;825;-69
2023/10/11 15:27:34;;;;;;;;;;;;;;;;;;5053387;28;936;-69
2023/10/11 15:29:59;;;;;;;;;;;;;;;;;;5052645;28;884;-69
2023/10/11 15:32:25;;;;;;;;;;;;;;;;;;5052980;28;1894;-69
2023/10/11 15:34:54;;;;;;;;;;;;;;;;;;5052565;28;1086;-67
2023/10/11 15:37:19;;;;;;;;;;;;;;;;;;5052842;28;928;-67
2023/10/11 15:39:45;;;;;;;;;;;;;;;;;;5052128;28;832;-68
2023/10/11 15:42:11;;;;;;;;;;;;;;;;;;5052637;28;930;-67
2023/10/11 15:44:38;;;;;;;;;;;;;;;;;;5052190;28;987;-67
2023/10/11 15:47:03;;;;;;;;;;;;;;;;;;5058548;28;1093;-68
2023/10/11 15:49:32;;;;;;;;;;;;;;;;;;5051280;28;1294;-67
2023/10/11 15:51:59;;;;;;;;;;;;;;;;;;5051656;28;1902;-67
2023/10/11 15:54:24;;;;;;;;;;;;;;;;;;5052637;28;892;-67
2023/10/11 15:56:49;;;;;;;;;;;;;;;;;;5052385;28;872;-68
2023/10/11 15:59:18;;;;;;;;;;;;;;;;;;5052482;28;963;-68
2023/10/11 16:01:43;;;;;;;;;;;;;;;;;;5052215;28;869;-68
2023/10/11 16:04:11;;;;;;;;;;;;;;;;;;5051651;28;924;-67
2023/10/11 16:06:37;;;;;;;;;;;;;;;;;;5050878;28;946;-68
2023/10/11 16:09:11;;;;;;;;;;;;;;;;;;5051913;28;969;-68
2023/10/11 16:11:36;;;;;;;;;;;;;;;;;;5052362;28;984;-68
2023/10/11 16:14:02;;;;;;;;;;;;;;;;;;5051463;28;1902;-68
2023/10/11 16:16:27;;;;;;;;;;;;;;;;;;5051695;28;884;-68
2023/10/11 16:18:52;;;;;;;;;;;;;;;;;;5050101;28;1156;-67
2023/10/11 16:21:17;;;;;;;;;;;;;;;;;;5051940;28;896;-68
2023/10/11 16:23:48;;;;;;;;;;;;;;;;;;5051859;28;885;-68
2023/10/11 16:26:14;;;;;;;;;;;;;;;;;;5051271;28;840;-68
2023/10/11 16:28:39;;;;;;;;;;;;;;;;;;5051920;28;893;-67
2023/10/11 16:31:07;;;;;;;;;;;;;;;;;;5051675;28;849;-67
2023/10/11 16:33:33;;;;;;;;;;;;;;;;;;5051141;28;1965;-67
2023/10/11 16:36:01;;;;;;;;;;;;;;;;;;5051249;28;900;-67
2023/10/11 16:38:26;;;;;;;;;;;;;;;;;;5051586;28;857;-67
2023/10/11 16:40:53;;;;;;;;;;;;;;;;;;5051338;28;910;-67
2023/10/11 16:43:21;;;;;;;;;;;;;;;;;;5051337;28;848;-67
2023/10/11 16:45:47;;;;;;;;;;;;;;;;;;5051167;28;809;-67
2023/10/11 16:48:13;;;;;;;;;;;;;;;;;;5051464;28;939;-67
2023/10/11 16:50:39;;;;;;;;;;;;;;;;;;5051999;28;1657;-67
2023/10/11 16:53:05;;;;;;;;;;;;;;;;;;5051279;28;1989;-67
2023/10/11 16:55:31;;;;;;;;;;;;;;;;;;5052248;28;818;-68
2023/10/11 16:57:57;;;;;;;;;;;;;;;;;;5051915;28;912;-67
2023/10/11 17:00:22;;;;;;;;;;;;;;;;;;5072661;28;1191;-67
2023/10/11 17:02:48;;;;;;;;;;;;;;;;;;5069864;28;1184;-67
2023/10/11 17:05:13;;;;;;;;;;;;;;;;;;5072045;28;916;-67
2023/10/11 17:07:39;;;;;;;;;;;;;;;;;;5072649;28;1088;-67
2023/10/11 17:10:06;;;;;;;;;;;;;;;;;;5072329;28;999;-67
2023/10/11 17:12:32;;;;;;;;;;;;;;;;;;5071310;28;1976;-67
2023/10/11 17:14:57;;;;;;;;;;;;;;;;;;5071404;28;896;-68
2023/10/11 17:17:23;;;;;;;;;;;;;;;;;;5069987;28;1963;-67
2023/10/11 17:19:49;;;;;;;;;;;;;;;;;;5070639;28;900;-67
2023/10/11 17:22:18;;;;;;;;;;;;;;;;;;5071163;28;872;-67
2023/10/11 17:24:45;;;;;;;;;;;;;;;;;;5070946;28;867;-67
2023/10/11 17:27:10;;;;;;;;;;;;;;;;;;5069446;28;927;-67
2023/10/11 17:29:36;;;;;;;;;;;;;;;;;;5071015;28;884;-67
2023/10/11 17:32:01;;;;;;;;;;;;;;;;;;5070451;28;1901;-67
2023/10/11 17:34:27;;;;;;;;;;;;;;;;;;5070896;28;886;-67
2023/10/11 17:36:52;;;;;;;;;;;;;;;;;;5070843;28;848;-67
2023/10/11 17:39:18;;;;;;;;;;;;;;;;;;5070970;28;872;-67
2023/10/11 17:41:43;;;;;;;;;;;;;;;;;;5071407;28;923;-67
2023/10/11 17:44:08;;;;;;;;;;;;;;;;;;5073069;28;1033;-67
2023/10/11 17:46:34;;;;;;;;;;;;;;;;;;5074411;28;848;-67
2023/10/11 17:49:00;;;;;;;;;;;;;;;;;;5074769;28;960;-67
2023/10/11 17:51:27;;;;;;;;;;;;;;;;;;5074914;28;1073;-67
2023/10/11 17:53:53;;;;;;;;;;;;;;;;;;5074566;28;1914;-67
2023/10/11 17:56:18;;;;;;;;;;;;;;;;;;5074427;28;915;-67
2023/10/11 17:58:48;;;;;;;;;;;;;;;;;;5073355;28;1343;-68
2023/10/11 18:01:13;;;;;;;;;;;;;;;;;;5075044;28;871;-67
2023/10/11 18:03:39;;;;;;;;;;;;;;;;;;5074603;28;888;-67
2023/10/11 18:06:04;;;;;;;;;;;;;;;;;;5074195;28;909;-67
2023/10/11 18:08:30;;;;;;;;;;;;;;;;;;5074694;28;1488;-67
2023/10/11 18:10:58;;;;;;;;;;;;;;;;;;5074162;28;819;-67
2023/10/11 18:13:23;;;;;;;;;;;;;;;;;;5074571;28;1939;-67